createdAt,value
2022-09-23T00:01:48.059Z,101399.33
2022-09-23T00:04:19.668Z,101397.06
2022-09-23T00:06:52.125Z,101400.23
2022-09-23T00:09:24.503Z,101396.17
2022-09-23T00:11:57.352Z,101392.81
2022-09-23T00:14:29.366Z,101393.14
2022-09-23T00:17:01.016Z,101390.06
2022-09-23T00:19:32.661Z,101388.98
2022-09-23T00:22:06.808Z,101386.48
2022-09-23T00:24:38.421Z,101387.12
2022-09-23T00:27:10.920Z,101389.63
2022-09-23T00:29:42.547Z,101386.83
2022-09-23T00:32:16.178Z,101381.30
2022-09-23T00:34:48.012Z,101383.23
2022-09-23T00:37:20.759Z,101380.46
2022-09-23T00:39:52.345Z,101380.06
2022-09-23T00:42:27.696Z,101374.48
2022-09-23T00:45:00.671Z,101379.84
2022-09-23T00:47:36.540Z,101375.65
2022-09-23T00:50:18.013Z,101380.08
2022-09-23T00:52:53.879Z,101376.02
2022-09-23T00:55:31.913Z,101374.65
2022-09-23T00:58:07.723Z,101371.23
2022-09-23T01:00:39.330Z,101367.67
2022-09-23T01:03:12.890Z,101366.23
2022-09-23T01:05:45.115Z,101365.19
2022-09-23T01:08:17.718Z,101362.72
2022-09-23T01:10:59.373Z,101362.52
2022-09-23T01:13:39.815Z,101358.36
2022-09-23T01:16:19.753Z,101356.27
2022-09-23T01:19:00.130Z,101351.25
2022-09-23T01:21:46.042Z,101347.64
2022-09-23T01:24:46.630Z,101342.05
2022-09-23T01:27:27.580Z,101347.05
2022-09-23T01:30:21.953Z,101344.33
2022-09-23T01:33:05.695Z,101350.24
2022-09-23T01:35:50.700Z,101345.77
2022-09-23T01:38:34.571Z,101346.07
2022-09-23T01:41:16.171Z,101346.42
2022-09-23T01:43:55.672Z,101343.08
2022-09-23T01:46:34.189Z,101340.75
2022-09-23T01:49:13.018Z,101338.42
2022-09-23T01:51:54.695Z,101338.21
2022-09-23T01:54:32.187Z,101335.89
2022-09-23T01:57:10.325Z,101334.18
2022-09-23T01:59:48.032Z,101334.44
2022-09-23T02:02:27.814Z,101335.07
2022-09-23T02:05:03.891Z,101335.50
2022-09-23T02:07:42.067Z,101334.26
2022-09-23T02:10:17.797Z,101328.70
2022-09-23T02:12:51.518Z,101332.33
2022-09-23T02:15:27.557Z,101335.23
2022-09-23T02:18:04.954Z,101329.55
2022-09-23T02:20:40.682Z,101330.70
2022-09-23T02:23:17.285Z,101329.96
2022-09-23T02:25:55.541Z,101327.83
2022-09-23T02:28:33.876Z,101324.79
2022-09-23T02:31:12.170Z,101321.14
2022-09-23T02:33:53.592Z,101320.27
2022-09-23T02:36:34.725Z,101319.72
2022-09-23T02:39:15.319Z,101318.48
2022-09-23T02:41:52.329Z,101322.66
2022-09-23T02:45:41.639Z,101325.29
2022-09-23T02:48:19.482Z,101321.16
2022-09-23T02:50:53.991Z,101316.12
2022-09-23T02:53:27.551Z,101314.45
2022-09-23T02:55:59.168Z,101312.91
2022-09-23T02:58:31.549Z,101316.17
2022-09-23T03:01:12.805Z,101315.33
2022-09-23T03:03:50.573Z,101313.13
2022-09-23T03:06:33.080Z,101314.28
2022-09-23T03:09:11.646Z,101314.50
2022-09-23T03:11:49.443Z,101312.64
2022-09-23T03:14:31.073Z,101311.55
2022-09-23T03:17:07.329Z,101311.98
2022-09-23T03:19:48.450Z,101312.10
2022-09-23T03:22:22.040Z,101309.34
2022-09-23T03:24:55.482Z,101305.50
2022-09-23T03:27:31.331Z,101303.27
2022-09-23T03:30:03.975Z,101303.46
2022-09-23T03:32:46.068Z,101297.95
2022-09-23T03:35:17.976Z,101298.44
2022-09-23T03:37:54.318Z,101295.40
2022-09-23T03:40:29.711Z,101291.93
2022-09-23T03:43:04.346Z,101290.15
2022-09-23T03:45:36.655Z,101284.77
2022-09-23T03:48:08.367Z,101283.55
2022-09-23T03:50:40.163Z,101280.91
2022-09-23T03:53:16.007Z,101282.56
2022-09-23T03:55:48.276Z,101278.93
2022-09-23T03:58:19.832Z,101274.51
2022-09-23T04:00:55.138Z,101273.05
2022-09-23T04:03:29.068Z,101272.84
2022-09-23T04:06:00.921Z,101269.99
2022-09-23T04:08:32.647Z,101268.95
2022-09-23T04:11:05.415Z,101265.21
2022-09-23T04:13:38.608Z,101265.14
2022-09-23T04:16:11.732Z,101267.16
2022-09-23T04:18:43.353Z,101265.84
2022-09-23T04:21:14.911Z,101263.01
2022-09-23T04:23:47.904Z,101261.55
2022-09-23T04:26:20.213Z,101260.17
2022-09-23T04:28:51.970Z,101259.15
2022-09-23T04:31:24.229Z,101257.46
2022-09-23T04:33:57.062Z,101257.96
2022-09-23T04:36:30.405Z,101253.14
2022-09-23T04:39:02.873Z,101254.69
2022-09-23T04:41:34.776Z,101251.90
2022-09-23T04:44:06.475Z,101250.38
2022-09-23T04:46:39.297Z,101249.54
2022-09-23T04:49:11.288Z,101249.45
2022-09-23T04:51:43.764Z,101246.13
2022-09-23T04:54:17.068Z,101246.91
2022-09-23T04:56:48.601Z,101243.85
2022-09-23T04:59:20.333Z,101241.95
2022-09-23T05:01:52.715Z,101243.65
2022-09-23T05:07:57.076Z,101248.71
2022-09-23T05:10:31.187Z,101247.30
2022-09-23T05:13:11.593Z,101246.35
2022-09-23T05:15:51.245Z,101245.69
2022-09-23T05:18:22.888Z,101249.85
2022-09-23T05:21:19.663Z,101252.60
2022-09-23T05:24:01.517Z,101253.43
2022-09-23T05:26:34.682Z,101252.34
2022-09-23T05:29:07.060Z,101248.15
2022-09-23T05:31:40.397Z,101250.91
2022-09-23T05:34:12.256Z,101255.44
2022-09-23T05:36:43.848Z,101259.07
2022-09-23T05:39:15.584Z,101255.12
2022-09-23T05:41:47.676Z,101258.91
2022-09-23T05:44:19.284Z,101263.23
2022-09-23T05:46:51.013Z,101258.93
2022-09-23T05:49:33.211Z,101264.27
2022-09-23T05:52:16.549Z,101263.67
2022-09-23T05:54:48.107Z,101263.89
2022-09-23T05:57:21.210Z,101266.10
2022-09-23T05:59:52.973Z,101263.62
2022-09-23T06:02:25.442Z,101266.38
2022-09-23T06:04:57.079Z,101263.45
2022-09-23T06:07:36.348Z,101259.44
2022-09-23T06:10:10.849Z,101257.79
2022-09-23T06:12:44.630Z,101255.73
2022-09-23T06:15:17.035Z,101251.66
2022-09-23T06:17:51.609Z,101254.28
2022-09-23T06:20:23.239Z,101250.52
2022-09-23T06:22:55.665Z,101248.81
2022-09-23T06:25:27.265Z,101248.57
2022-09-23T06:27:59.409Z,101247.67
2022-09-23T06:30:31.101Z,101247.23
2022-09-23T06:33:03.050Z,101241.25
2022-09-23T06:35:34.801Z,101241.57
2022-09-23T06:38:07.642Z,101242.34
2022-09-23T06:40:39.262Z,101243.98
2022-09-23T06:43:11.930Z,101253.10
2022-09-23T06:45:43.839Z,101256.91
2022-09-23T06:48:15.471Z,101260.69
2022-09-23T06:50:47.159Z,101256.16
2022-09-23T06:53:18.971Z,101252.25
2022-09-23T06:55:50.757Z,101249.02
2022-09-23T06:58:22.670Z,101247.66
2022-09-23T07:00:55.255Z,101250.61
2022-09-23T07:03:27.628Z,101254.55
2022-09-23T07:06:01.777Z,101249.78
2022-09-23T07:08:34.819Z,101248.91
2022-09-23T07:11:13.364Z,101247.73
2022-09-23T07:13:46.791Z,101249.44
2022-09-23T07:16:18.484Z,101249.27
2022-09-23T07:18:50.464Z,101249.48
2022-09-23T07:21:22.220Z,101251.61
2022-09-23T07:23:55.355Z,101252.80
2022-09-23T07:26:27.589Z,101252.84
2022-09-23T07:29:04.947Z,101257.77
2022-09-23T07:31:39.985Z,101264.87
2022-09-23T07:34:12.884Z,101261.16
2022-09-23T07:36:44.593Z,101261.54
2022-09-23T07:39:16.196Z,101266.96
2022-09-23T07:41:48.269Z,101269.61
2022-09-23T07:44:22.779Z,101272.05
2022-09-23T07:46:54.407Z,101275.11
2022-09-23T07:49:26.063Z,101272.77
2022-09-23T07:51:58.004Z,101276.16
2022-09-23T07:54:29.923Z,101274.40
2022-09-23T07:57:01.988Z,101276.45
2022-09-23T07:59:36.246Z,101271.17
2022-09-23T08:02:07.970Z,101267.89
2022-09-23T08:04:39.712Z,101268.69
2022-09-23T08:07:13.409Z,101266.29
2022-09-23T08:09:47.037Z,101262.61
2022-09-23T08:12:22.360Z,101261.85
2022-09-23T08:14:54.112Z,101259.20
2022-09-23T08:17:26.004Z,101260.27
2022-09-23T08:19:57.610Z,101259.26
2022-09-23T08:22:29.912Z,101260.13
2022-09-23T08:25:01.579Z,101257.14
2022-09-23T08:27:33.290Z,101255.70
2022-09-23T08:30:13.794Z,101254.90
2022-09-23T08:32:45.498Z,101255.27
2022-09-23T08:35:17.666Z,101251.33
2022-09-23T08:37:49.413Z,101248.49
2022-09-23T08:40:26.742Z,101246.30
2022-09-23T08:42:58.409Z,101241.42
2022-09-23T08:45:30.578Z,101238.33
2022-09-23T08:48:10.739Z,101234.71
2022-09-23T08:50:49.749Z,101231.76
2022-09-23T08:53:27.448Z,101232.27
2022-09-23T08:56:04.106Z,101233.27
2022-09-23T08:58:48.166Z,101231.45
2022-09-23T09:01:25.838Z,101230.09
2022-09-23T09:03:59.490Z,101230.58
2022-09-23T09:06:52.937Z,101226.87
2022-09-23T09:09:31.583Z,101227.91
2022-09-23T09:12:12.861Z,101225.10
2022-09-23T09:14:51.988Z,101228.30
2022-09-23T09:17:36.630Z,101223.79
2022-09-23T09:20:23.306Z,101222.42
2022-09-23T09:23:00.719Z,101225.20
2022-09-23T09:25:42.580Z,101225.61
2022-09-23T09:28:20.097Z,101224.77
2022-09-23T09:30:57.511Z,101226.33
2022-09-23T09:33:37.584Z,101225.46
2022-09-23T09:36:21.854Z,101220.04
2022-09-23T09:38:53.481Z,101218.55
2022-09-23T09:41:27.488Z,101220.35
2022-09-23T09:44:00.916Z,101217.33
2022-09-23T09:46:51.099Z,101210.70
2022-09-23T09:49:31.023Z,101209.63
2022-09-23T09:52:20.770Z,101204.83
2022-09-23T09:54:53.676Z,101200.02
2022-09-23T09:57:36.053Z,101197.54
2022-09-23T10:00:38.790Z,101197.98
2022-09-23T10:03:29.055Z,101196.92
2022-09-23T10:06:00.922Z,101194.85
2022-09-23T10:08:37.429Z,101190.63
2022-09-23T10:11:17.678Z,101191.31
2022-09-23T10:14:07.135Z,101184.51
2022-09-23T10:16:41.010Z,101181.14
2022-09-23T10:19:26.135Z,101177.26
2022-09-23T10:22:01.749Z,101178.02
2022-09-23T10:24:36.443Z,101179.65
2022-09-23T10:27:11.448Z,101174.01
2022-09-23T10:29:52.095Z,101167.19
2022-09-23T10:32:28.001Z,101162.42
2022-09-23T10:35:03.007Z,101157.40
2022-09-23T10:37:39.785Z,101160.52
2022-09-23T10:40:43.784Z,101161.98
2022-09-23T10:43:42.131Z,101162.45
2022-09-23T10:46:37.887Z,101157.82
2022-09-23T10:49:50.063Z,101157.48
2022-09-23T10:52:39.371Z,101152.51
2022-09-23T10:55:24.569Z,101147.91
2022-09-23T10:58:25.664Z,101138.86
2022-09-23T11:01:07.088Z,101137.48
2022-09-23T11:04:01.452Z,101134.52
2022-09-23T11:06:47.793Z,101136.52
2022-09-23T11:09:32.748Z,101134.44
2022-09-23T11:12:20.147Z,101127.98
2022-09-23T11:15:04.873Z,101126.00
2022-09-23T11:17:52.585Z,101118.08
2022-09-23T11:20:48.211Z,101116.94
2022-09-23T11:23:48.041Z,101115.70
2022-09-23T11:26:33.293Z,101112.05
2022-09-23T11:29:23.781Z,101109.89
2022-09-23T11:32:10.306Z,101105.73
2022-09-23T11:35:02.654Z,101100.87
2022-09-23T11:37:38.106Z,101097.52
2022-09-23T11:40:25.492Z,101092.57
2022-09-23T11:43:04.211Z,101096.14
2022-09-23T11:45:42.006Z,101088.17
2022-09-23T11:48:19.182Z,101087.77
2022-09-23T11:50:58.987Z,101088.67
2022-09-23T11:53:39.085Z,101085.74
2022-09-23T11:56:31.879Z,101084.00
2022-09-23T11:59:13.304Z,101077.56
2022-09-23T12:01:58.207Z,101077.02
2022-09-23T12:04:56.855Z,101071.96
2022-09-23T12:07:35.927Z,101066.48
2022-09-23T12:10:10.325Z,101063.70
2022-09-23T12:12:49.313Z,101062.40
2022-09-23T12:15:36.080Z,101059.02
2022-09-23T12:18:23.555Z,101056.64
2022-09-23T12:21:27.125Z,101051.34
2022-09-23T12:24:25.463Z,101043.09
2022-09-23T12:27:01.500Z,101040.57
2022-09-23T12:29:36.260Z,101040.71
2022-09-23T12:32:10.082Z,101037.64
2022-09-23T12:34:49.199Z,101040.40
2022-09-23T12:37:28.960Z,101034.20
2022-09-23T12:40:26.489Z,101036.15
2022-09-23T12:43:01.225Z,101036.34
2022-09-23T12:45:41.547Z,101034.66
2022-09-23T12:48:48.989Z,101030.74
2022-09-23T12:51:25.215Z,101029.23
2022-09-23T12:54:15.331Z,101022.71
2022-09-23T12:57:01.808Z,101022.91
2022-09-23T12:59:57.557Z,101019.45
2022-09-23T13:02:38.702Z,101017.39
2022-09-23T13:05:38.809Z,101017.02
2022-09-23T13:08:14.712Z,101011.46
2022-09-23T13:10:50.023Z,101010.07
2022-09-23T13:13:28.326Z,101004.74
2022-09-23T13:16:13.841Z,101000.95
2022-09-23T13:18:59.738Z,100999.48
2022-09-23T13:22:09.274Z,100997.98
2022-09-23T13:24:44.403Z,100995.98
2022-09-23T13:27:23.093Z,100994.08
2022-09-23T13:29:59.935Z,100985.98
2022-09-23T13:32:35.459Z,100982.05
2022-09-23T13:35:16.799Z,100979.98
2022-09-23T13:37:50.111Z,100977.85
2022-09-23T13:40:31.808Z,100977.67
2022-09-23T13:43:05.956Z,100970.08
2022-09-23T13:45:43.304Z,100968.89
2022-09-23T13:48:16.610Z,100961.31
2022-09-23T13:50:53.606Z,100959.38
2022-09-23T13:53:29.012Z,100956.02
2022-09-23T13:56:06.464Z,100952.50
2022-09-23T13:58:38.405Z,100951.92
2022-09-23T14:01:23.364Z,100947.32
2022-09-23T14:03:54.961Z,100943.59
2022-09-23T14:06:28.330Z,100943.58
2022-09-23T14:09:02.498Z,100941.64
2022-09-23T14:11:38.953Z,100935.39
2022-09-23T14:14:14.991Z,100933.95
2022-09-23T14:16:49.782Z,100929.44
2022-09-23T14:19:23.563Z,100930.53
2022-09-23T14:21:56.439Z,100930.25
2022-09-23T14:24:34.189Z,100926.94
2022-09-23T14:27:18.988Z,100925.39
2022-09-23T14:29:51.181Z,100920.67
2022-09-23T14:32:27.682Z,100923.52
2022-09-23T14:35:17.828Z,100919.53
2022-09-23T14:38:18.937Z,100916.46
2022-09-23T14:41:15.572Z,100912.31
2022-09-23T14:43:52.862Z,100906.70
2022-09-23T14:46:25.889Z,100905.58
2022-09-23T14:49:05.881Z,100904.08
2022-09-23T14:51:48.170Z,100899.55
2022-09-23T14:54:42.580Z,100902.34
2022-09-23T14:57:30.560Z,100902.81
2022-09-23T15:00:17.512Z,100902.92
2022-09-23T15:03:01.975Z,100905.82
2022-09-23T15:05:43.188Z,100902.77
2022-09-23T15:08:19.222Z,100902.86
2022-09-23T15:10:53.032Z,100898.17
2022-09-23T15:13:28.451Z,100893.95
2022-09-23T15:16:02.030Z,100893.27
2022-09-23T15:18:36.987Z,100889.81
2022-09-23T15:21:13.942Z,100886.44
2022-09-23T15:23:50.022Z,100886.48
2022-09-23T15:26:24.669Z,100885.73
2022-09-23T15:28:59.934Z,100884.58
2022-09-23T15:31:32.467Z,100884.59
2022-09-23T15:34:05.660Z,100879.07
2022-09-23T15:36:38.399Z,100872.31
2022-09-23T15:39:12.142Z,100863.42
2022-09-23T15:41:44.072Z,100863.19
2022-09-23T15:44:18.104Z,100856.75
2022-09-23T15:46:52.055Z,100858.30
2022-09-23T15:49:30.394Z,100861.65
2022-09-23T15:52:04.408Z,100864.90
2022-09-23T15:54:36.287Z,100861.64
2022-09-23T15:57:08.075Z,100865.64
2022-09-23T15:59:40.196Z,100865.91
2022-09-23T16:02:25.845Z,100862.23
2022-09-23T16:04:57.490Z,100864.56
2022-09-23T16:07:29.175Z,100863.32
2022-09-23T16:10:00.869Z,100867.81
2022-09-23T16:12:33.311Z,100863.14
2022-09-23T16:15:05.065Z,100862.41
2022-09-23T16:17:37.823Z,100861.59
2022-09-23T16:20:12.403Z,100864.91
2022-09-23T16:22:43.989Z,100864.66
2022-09-23T16:25:15.716Z,100863.98
2022-09-23T16:27:47.245Z,100867.80
2022-09-23T16:30:19.127Z,100867.05
2022-09-23T16:32:51.790Z,100865.81
2022-09-23T16:35:26.970Z,100864.21
2022-09-23T16:37:58.583Z,100862.39
2022-09-23T16:40:35.790Z,100865.39
2022-09-23T16:43:08.440Z,100861.71
2022-09-23T16:45:40.105Z,100864.82
2022-09-23T16:48:12.643Z,100864.58
2022-09-23T16:50:44.966Z,100861.23
2022-09-23T16:53:18.215Z,100861.73
2022-09-23T16:55:49.871Z,100860.89
2022-09-23T16:58:22.499Z,100857.13
2022-09-23T17:01:17.494Z,100862.00
2022-09-23T17:03:49.764Z,100860.52
2022-09-23T17:06:24.080Z,100858.14
2022-09-23T17:08:56.341Z,100860.09
2022-09-23T17:11:33.430Z,100858.95
2022-09-23T17:14:06.394Z,100854.14
2022-09-23T17:16:38.127Z,100853.84
2022-09-23T17:19:11.905Z,100849.83
2022-09-23T17:21:43.540Z,100848.13
2022-09-23T17:24:15.320Z,100843.42
2022-09-23T17:26:52.606Z,100844.13
2022-09-23T17:29:26.973Z,100844.01
2022-09-23T17:31:59.085Z,100845.66
2022-09-23T17:34:33.572Z,100843.39
2022-09-23T17:37:05.300Z,100846.57
2022-09-23T17:39:37.043Z,100846.52
2022-09-23T17:42:08.726Z,100846.48
2022-09-23T17:44:41.279Z,100847.63
2022-09-23T17:47:12.973Z,100844.03
2022-09-23T17:49:47.272Z,100845.34
2022-09-23T17:52:20.055Z,100844.90
2022-09-23T17:54:53.908Z,100843.17
2022-09-23T17:57:25.766Z,100848.47
2022-09-23T17:59:57.634Z,100848.39
2022-09-23T18:02:29.380Z,100844.95
2022-09-23T18:05:01.262Z,100845.44
2022-09-23T18:07:33.037Z,100845.14
2022-09-23T18:10:12.497Z,100842.56
2022-09-23T18:12:44.214Z,100843.27
2022-09-23T18:15:19.963Z,100843.89
2022-09-23T18:17:51.946Z,100842.42
2022-09-23T18:20:29.022Z,100846.27
2022-09-23T18:23:02.338Z,100843.55
2022-09-23T18:25:39.661Z,100841.93
2022-09-23T18:28:11.764Z,100844.09
2022-09-23T18:30:53.859Z,100841.26
2022-09-23T18:33:25.968Z,100839.33
2022-09-23T18:36:00.866Z,100836.61
2022-09-23T18:38:32.887Z,100835.87
2022-09-23T18:41:05.975Z,100833.30
2022-09-23T18:43:42.227Z,100833.93
2022-09-23T18:46:17.624Z,100831.70
2022-09-23T18:49:08.783Z,100829.75
2022-09-23T18:51:49.193Z,100825.27
2022-09-23T18:54:21.815Z,100822.16
2022-09-23T18:56:53.714Z,100823.14
2022-09-23T18:59:29.886Z,100822.92
2022-09-23T19:02:03.043Z,100824.52
2022-09-23T19:04:35.310Z,100829.10
2022-09-23T19:07:08.733Z,100831.05
2022-09-23T19:09:40.474Z,100831.60
2022-09-23T19:12:13.128Z,100832.48
2022-09-23T19:14:45.057Z,100828.91
2022-09-23T19:17:17.647Z,100824.98
2022-09-23T19:19:50.258Z,100823.38
2022-09-23T19:22:22.834Z,100821.45
2022-09-23T19:24:54.552Z,100815.46
2022-09-23T19:27:26.285Z,100817.74
2022-09-23T19:29:58.384Z,100817.91
2022-09-23T19:32:35.695Z,100818.23
2022-09-23T19:35:10.402Z,100819.45
2022-09-23T19:37:43.238Z,100825.78
2022-09-23T19:40:15.599Z,100827.95
2022-09-23T19:42:47.723Z,100830.06
2022-09-23T19:45:19.585Z,100832.38
2022-09-23T19:47:56.832Z,100830.47
2022-09-23T19:50:30.908Z,100825.88
2022-09-23T19:53:06.203Z,100827.13
2022-09-23T19:55:38.813Z,100820.98
2022-09-23T19:58:10.642Z,100823.86
2022-09-23T20:00:42.784Z,100819.84
2022-09-23T20:03:18.477Z,100821.69
2022-09-23T20:05:58.096Z,100819.90
2022-09-23T20:08:31.894Z,100821.46
2022-09-23T20:11:11.662Z,100822.67
2022-09-23T20:13:47.451Z,100818.94
2022-09-23T20:16:20.864Z,100822.12
2022-09-23T20:18:55.682Z,100818.33
2022-09-23T20:21:28.338Z,100814.67
2022-09-23T20:24:00.470Z,100810.31
2022-09-23T20:26:49.691Z,100809.29
2022-09-23T20:29:21.309Z,100811.91
2022-09-23T20:31:52.973Z,100807.09
2022-09-23T20:34:27.498Z,100806.77
2022-09-23T20:36:59.351Z,100809.95
2022-09-23T20:39:31.113Z,100810.70
2022-09-23T20:42:02.812Z,100811.29
2022-09-23T20:44:35.309Z,100814.52
2022-09-23T20:47:07.093Z,100812.61
2022-09-23T20:49:42.595Z,100812.29
2022-09-23T20:52:16.619Z,100815.56
2022-09-23T20:54:51.703Z,100808.73
2022-09-23T20:57:23.362Z,100810.79
2022-09-23T20:59:54.961Z,100806.71
2022-09-23T21:02:27.371Z,100806.52
2022-09-23T21:04:59.041Z,100804.96
2022-09-23T21:07:31.044Z,100806.52
2022-09-23T21:10:12.301Z,100806.25
2022-09-23T21:12:42.716Z,100802.83
2022-09-23T21:15:14.703Z,100806.48
2022-09-23T21:17:46.454Z,100799.73
2022-09-23T21:20:24.175Z,100797.90
2022-09-23T21:22:56.438Z,100799.29
2022-09-23T21:25:29.183Z,100799.13
2022-09-23T21:28:02.115Z,100793.62
2022-09-23T21:30:36.087Z,100794.64
2022-09-23T21:33:07.643Z,100791.47
2022-09-23T21:35:39.369Z,100788.00
2022-09-23T21:38:10.968Z,100785.98
2022-09-23T21:40:58.616Z,100783.77
2022-09-23T21:43:33.354Z,100783.63
2022-09-23T21:46:07.512Z,100782.40
2022-09-23T21:48:41.241Z,100780.19
2022-09-23T21:51:16.891Z,100781.30
2022-09-23T21:53:49.104Z,100777.65
2022-09-23T21:56:22.568Z,100775.30
2022-09-23T21:58:56.363Z,100774.43
2022-09-23T22:01:31.642Z,100771.92
2022-09-23T22:04:08.529Z,100775.13
2022-09-23T22:06:40.869Z,100774.69
2022-09-23T22:09:15.815Z,100772.02
2022-09-23T22:12:10.305Z,100770.13
2022-09-23T22:14:43.409Z,100769.14
2022-09-23T22:17:16.624Z,100768.14
2022-09-23T22:19:48.851Z,100769.18
2022-09-23T22:22:22.602Z,100769.32
2022-09-23T22:24:54.201Z,100767.38
2022-09-23T22:27:27.459Z,100767.29
2022-09-23T22:30:16.701Z,100768.18
2022-09-23T22:32:54.887Z,100769.09
2022-09-23T22:35:26.772Z,100767.29
2022-09-23T22:38:00.600Z,100765.78
2022-09-23T22:40:32.538Z,100764.00
2022-09-23T22:43:05.895Z,100765.05
2022-09-23T22:45:37.750Z,100760.81
2022-09-23T22:48:09.624Z,100759.82
2022-09-23T22:50:42.674Z,100761.05
2022-09-23T22:53:15.476Z,100756.23
2022-09-23T22:55:57.548Z,100758.38
2022-09-23T22:58:32.722Z,100755.58
2022-09-23T23:01:05.520Z,100755.00
2022-09-23T23:03:38.165Z,100753.15
2022-09-23T23:06:11.193Z,100755.92
2022-09-23T23:08:43.551Z,100755.56
2022-09-23T23:11:15.149Z,100759.16
2022-09-23T23:13:47.605Z,100754.27
2022-09-23T23:16:19.271Z,100754.81
2022-09-23T23:18:50.996Z,100753.52
2022-09-23T23:21:23.658Z,100748.00
2022-09-23T23:23:55.769Z,100749.40
2022-09-23T23:26:29.098Z,100748.80
2022-09-23T23:29:01.946Z,100746.38
2022-09-23T23:31:33.687Z,100746.02
2022-09-23T23:34:06.192Z,100747.10
2022-09-23T23:36:37.788Z,100746.71
2022-09-23T23:39:09.718Z,100746.57
2022-09-23T23:41:41.652Z,100745.65
2022-09-23T23:44:15.658Z,100747.42
2022-09-23T23:46:47.268Z,100749.81
2022-09-23T23:49:20.452Z,100749.12
2022-09-23T23:51:53.099Z,100745.99
2022-09-23T23:54:25.584Z,100745.62
2022-09-23T23:56:57.202Z,100745.88
2022-09-23T23:59:32.115Z,100748.77
